createdAt,value
2023-05-10T00:00:27.511Z,6.80
2023-05-10T00:02:58.080Z,6.70
2023-05-10T00:05:27.204Z,6.70
2023-05-10T00:07:56.457Z,6.60
2023-05-10T00:10:25.707Z,6.50
2023-05-10T00:12:55.190Z,6.50
2023-05-10T00:15:24.594Z,6.40
2023-05-10T00:17:53.367Z,6.30
2023-05-10T00:20:24.128Z,6.30
2023-05-10T00:22:53.259Z,6.20
2023-05-10T00:25:23.229Z,6.20
2023-05-10T00:27:52.224Z,6.10
2023-05-10T00:30:20.714Z,6.00
2023-05-10T00:32:51.095Z,6.00
2023-05-10T00:35:20.070Z,5.90
2023-05-10T00:37:51.320Z,5.80
2023-05-10T00:40:20.742Z,5.80
2023-05-10T00:42:53.679Z,5.70
2023-05-10T00:45:23.462Z,5.70
2023-05-10T00:47:56.442Z,5.70
2023-05-10T00:50:26.240Z,5.60
2023-05-10T00:52:56.653Z,5.60
2023-05-10T00:55:25.630Z,5.60
2023-05-10T00:57:55.934Z,5.60
2023-05-10T01:00:25.302Z,5.60
2023-05-10T01:02:59.251Z,5.70
2023-05-10T01:05:28.879Z,5.90
2023-05-10T01:08:01.255Z,5.90
2023-05-10T01:10:33.181Z,5.80
2023-05-10T01:13:04.562Z,5.80
2023-05-10T01:15:34.460Z,5.80
2023-05-10T01:18:04.653Z,5.70
2023-05-10T01:20:43.250Z,5.80
2023-05-10T01:23:57.396Z,5.70
2023-05-10T01:27:07.753Z,5.70
2023-05-10T01:30:09.218Z,5.70
2023-05-10T01:32:52.778Z,5.60
2023-05-10T01:35:28.871Z,5.70
2023-05-10T01:38:07.906Z,5.60
2023-05-10T01:40:42.705Z,5.60
2023-05-10T01:43:18.619Z,5.50
2023-05-10T01:45:57.054Z,5.50
2023-05-10T01:48:30.514Z,5.50
2023-05-10T01:51:00.594Z,5.40
2023-05-10T01:53:30.620Z,5.40
2023-05-10T01:56:01.807Z,5.40
2023-05-10T01:58:34.650Z,5.40
2023-05-10T02:01:07.443Z,5.50
2023-05-10T02:03:39.799Z,5.40
2023-05-10T02:06:10.476Z,5.40
2023-05-10T02:08:40.253Z,5.30
2023-05-10T02:11:10.456Z,5.40
2023-05-10T02:13:41.820Z,5.30
2023-05-10T02:16:11.331Z,5.40
2023-05-10T02:18:43.725Z,5.40
2023-05-10T02:21:13.228Z,5.40
2023-05-10T02:23:42.839Z,5.30
2023-05-10T02:26:13.364Z,5.20
2023-05-10T02:28:43.478Z,5.20
2023-05-10T02:31:13.378Z,5.10
2023-05-10T02:33:44.312Z,5.00
2023-05-10T02:36:15.443Z,4.90
2023-05-10T02:38:44.978Z,5.00
2023-05-10T02:41:14.988Z,4.90
2023-05-10T02:43:46.192Z,4.90
2023-05-10T02:46:15.985Z,5.10
2023-05-10T02:48:46.815Z,5.20
2023-05-10T02:51:19.255Z,5.30
2023-05-10T02:53:51.210Z,5.40
2023-05-10T02:56:27.504Z,5.60
2023-05-10T02:58:56.789Z,5.70
2023-05-10T03:01:27.907Z,5.80
2023-05-10T03:03:58.053Z,5.80
2023-05-10T03:06:26.819Z,5.80
2023-05-10T03:08:55.964Z,5.80
2023-05-10T03:11:38.159Z,5.90
2023-05-10T03:14:19.824Z,6.00
2023-05-10T03:16:54.366Z,6.00
2023-05-10T03:19:29.117Z,6.10
2023-05-10T03:22:03.530Z,6.00
2023-05-10T03:24:38.634Z,5.90
2023-05-10T03:27:08.443Z,5.90
2023-05-10T03:29:38.990Z,6.00
2023-05-10T03:32:08.019Z,6.00
2023-05-10T03:34:44.630Z,6.00
2023-05-10T03:37:13.827Z,6.00
2023-05-10T03:39:42.986Z,6.00
2023-05-10T03:42:13.316Z,6.10
2023-05-10T03:44:42.533Z,6.10
2023-05-10T03:47:11.235Z,6.20
2023-05-10T03:49:41.943Z,6.20
2023-05-10T03:52:10.835Z,6.10
2023-05-10T03:54:39.447Z,6.20
2023-05-10T03:57:08.761Z,6.20
2023-05-10T03:59:38.298Z,6.30
2023-05-10T04:02:06.928Z,6.30
2023-05-10T04:04:37.492Z,6.40
2023-05-10T04:07:07.847Z,6.50
2023-05-10T04:09:36.968Z,6.60
2023-05-10T04:12:08.985Z,6.70
2023-05-10T04:14:39.758Z,6.80
2023-05-10T04:17:08.635Z,6.80
2023-05-10T04:19:38.068Z,6.90
2023-05-10T04:22:08.141Z,7.00
2023-05-10T04:24:36.862Z,7.10
2023-05-10T04:27:07.462Z,6.70
2023-05-10T04:29:36.107Z,7.20
2023-05-10T04:32:05.556Z,7.30
2023-05-10T04:34:35.676Z,7.40
2023-05-10T04:37:04.647Z,7.40
2023-05-10T04:39:35.290Z,7.70
2023-05-10T04:42:06.903Z,7.70
2023-05-10T04:44:36.244Z,7.80
2023-05-10T04:47:05.410Z,7.90
2023-05-10T04:49:34.334Z,8.00
2023-05-10T04:52:02.880Z,8.10
2023-05-10T04:54:31.522Z,8.20
2023-05-10T04:57:01.499Z,8.40
2023-05-10T04:59:30.853Z,8.50
2023-05-10T05:01:59.589Z,8.60
2023-05-10T05:04:28.420Z,8.70
2023-05-10T05:06:57.608Z,8.80
2023-05-10T05:09:26.695Z,9.00
2023-05-10T05:11:55.409Z,9.10
2023-05-10T05:14:26.412Z,9.30
2023-05-10T05:16:55.323Z,9.40
2023-05-10T05:19:24.074Z,9.50
2023-05-10T05:21:52.783Z,9.60
2023-05-10T05:24:22.410Z,9.70
2023-05-10T05:26:51.192Z,9.80
2023-05-10T05:29:20.096Z,9.90
2023-05-10T05:31:50.473Z,10.10
2023-05-10T05:34:19.584Z,10.20
2023-05-10T05:36:48.680Z,10.20
2023-05-10T05:39:18.469Z,10.30
2023-05-10T05:41:47.867Z,10.50
2023-05-10T05:44:16.814Z,10.50
2023-05-10T05:46:45.923Z,10.60
2023-05-10T05:49:16.306Z,10.70
2023-05-10T05:51:45.785Z,10.80
2023-05-10T05:54:14.783Z,10.80
2023-05-10T05:56:43.906Z,11.10
2023-05-10T05:59:12.905Z,11.10
2023-05-10T06:01:44.106Z,11.10
2023-05-10T06:04:13.870Z,11.20
2023-05-10T06:06:45.169Z,11.40
2023-05-10T06:09:14.728Z,11.50
2023-05-10T06:11:44.020Z,11.40
2023-05-10T06:14:13.349Z,11.50
2023-05-10T06:16:41.953Z,11.70
2023-05-10T06:19:12.319Z,11.80
2023-05-10T06:21:41.076Z,12.00
2023-05-10T06:24:11.325Z,12.10
2023-05-10T06:26:40.230Z,12.20
2023-05-10T06:29:08.903Z,12.30
2023-05-10T06:31:37.907Z,12.60
2023-05-10T06:34:09.088Z,12.70
2023-05-10T06:36:37.927Z,12.80
2023-05-10T06:39:06.869Z,12.80
2023-05-10T06:41:37.329Z,12.90
2023-05-10T06:44:06.909Z,13.00
2023-05-10T06:46:35.722Z,13.10
2023-05-10T06:49:04.762Z,13.30
2023-05-10T06:51:34.051Z,13.30
2023-05-10T06:54:24.810Z,13.40
2023-05-10T06:56:55.287Z,13.50
2023-05-10T06:59:24.690Z,13.80
2023-05-10T07:01:53.455Z,14.00
2023-05-10T07:04:22.225Z,14.00
2023-05-10T07:06:50.995Z,14.10
2023-05-10T07:09:20.077Z,14.30
2023-05-10T07:11:48.637Z,14.40
2023-05-10T07:14:18.656Z,14.40
2023-05-10T07:16:47.360Z,14.60
2023-05-10T07:19:16.208Z,14.60
2023-05-10T07:21:45.222Z,14.70
2023-05-10T07:24:14.238Z,14.80
2023-05-10T07:26:43.022Z,14.90
2023-05-10T07:29:12.488Z,14.90
2023-05-10T07:31:43.644Z,14.90
2023-05-10T07:34:13.998Z,15.10
2023-05-10T07:36:43.659Z,15.20
2023-05-10T07:39:16.244Z,15.30
2023-05-10T07:41:50.873Z,15.30
2023-05-10T07:44:21.463Z,15.40
2023-05-10T07:46:51.600Z,15.50
2023-05-10T07:49:20.209Z,15.80
2023-05-10T07:51:59.247Z,15.90
2023-05-10T07:54:29.034Z,15.90
2023-05-10T07:56:58.792Z,16.00
2023-05-10T07:59:27.626Z,16.10
2023-05-10T08:02:00.307Z,16.20
2023-05-10T08:04:30.418Z,16.20
2023-05-10T08:06:59.511Z,16.20
2023-05-10T08:09:29.116Z,16.40
2023-05-10T08:11:57.712Z,16.40
2023-05-10T08:14:30.689Z,16.50
2023-05-10T08:17:19.690Z,16.80
2023-05-10T08:19:52.014Z,17.00
2023-05-10T08:22:20.974Z,17.40
2023-05-10T08:24:50.122Z,17.50
2023-05-10T08:27:18.902Z,17.70
2023-05-10T08:29:50.486Z,17.90
2023-05-10T08:32:21.169Z,17.90
2023-05-10T08:34:49.966Z,17.90
2023-05-10T08:37:18.479Z,18.10
2023-05-10T08:39:49.062Z,18.40
2023-05-10T08:42:22.024Z,18.80
2023-05-10T08:44:51.959Z,19.00
2023-05-10T08:47:23.218Z,19.00
2023-05-10T08:49:52.838Z,19.60
2023-05-10T08:52:22.589Z,20.20
2023-05-10T08:54:51.754Z,20.20
2023-05-10T08:57:22.564Z,20.90
2023-05-10T08:59:52.275Z,21.60
2023-05-10T09:02:23.481Z,21.60
2023-05-10T09:04:52.351Z,22.60
2023-05-10T09:07:21.851Z,23.90
2023-05-10T09:09:51.883Z,24.40
2023-05-10T09:12:20.570Z,24.70
2023-05-10T09:14:49.416Z,24.70
2023-05-10T09:17:18.434Z,24.80
2023-05-10T09:19:48.966Z,24.90
2023-05-10T09:22:18.916Z,25.50
2023-05-10T09:24:47.780Z,25.40
2023-05-10T09:27:16.390Z,25.90
2023-05-10T09:29:46.796Z,26.20
2023-05-10T09:32:17.954Z,25.40
2023-05-10T09:34:46.489Z,26.00
2023-05-10T09:37:16.305Z,26.60
2023-05-10T09:39:45.100Z,26.10
2023-05-10T09:42:13.808Z,27.30
2023-05-10T09:44:44.748Z,26.60
2023-05-10T09:47:19.883Z,27.60
2023-05-10T09:49:52.478Z,26.90
2023-05-10T09:52:23.330Z,26.40
2023-05-10T09:54:56.554Z,26.80
2023-05-10T09:57:26.822Z,27.00
2023-05-10T09:59:56.886Z,27.20
2023-05-10T10:02:31.727Z,27.90
2023-05-10T10:05:01.805Z,27.60
2023-05-10T10:07:33.209Z,27.50
2023-05-10T10:10:02.539Z,28.00
2023-05-10T10:12:31.592Z,27.30
2023-05-10T10:15:03.404Z,27.80
2023-05-10T10:17:34.033Z,26.70
2023-05-10T10:20:05.113Z,28.20
2023-05-10T10:22:35.823Z,28.70
2023-05-10T10:25:06.734Z,28.80
2023-05-10T10:27:45.182Z,27.50
2023-05-10T10:30:32.556Z,28.80
2023-05-10T10:33:32.510Z,28.10
2023-05-10T10:36:04.323Z,27.90
2023-05-10T10:39:01.049Z,28.40
2023-05-10T10:41:33.533Z,27.80
2023-05-10T10:44:40.025Z,27.90
2023-05-10T10:47:31.194Z,28.10
2023-05-10T10:50:08.767Z,29.00
2023-05-10T10:52:39.770Z,29.80
2023-05-10T10:55:12.277Z,29.80
2023-05-10T10:57:49.918Z,30.20
2023-05-10T11:00:27.256Z,30.50
2023-05-10T11:02:58.455Z,30.30
2023-05-10T11:05:35.534Z,28.80
2023-05-10T11:08:13.886Z,28.40
2023-05-10T11:10:55.835Z,30.70
2023-05-10T11:13:31.960Z,30.50
2023-05-10T11:16:01.336Z,30.60
2023-05-10T11:18:31.458Z,30.20
2023-05-10T11:21:01.528Z,30.70
2023-05-10T11:23:34.774Z,31.80
2023-05-10T11:26:07.338Z,31.40
2023-05-10T11:28:36.049Z,29.60
2023-05-10T11:31:04.783Z,29.50
2023-05-10T11:33:44.688Z,30.40
2023-05-10T11:36:15.129Z,29.40
2023-05-10T11:38:44.555Z,30.80
2023-05-10T11:41:15.553Z,30.40
2023-05-10T11:43:45.285Z,30.40
2023-05-10T11:46:16.416Z,30.20
2023-05-10T11:48:47.164Z,27.70
2023-05-10T11:51:16.073Z,28.30
2023-05-10T11:53:44.623Z,28.50
2023-05-10T11:56:15.365Z,29.50
2023-05-10T11:58:44.934Z,29.60
2023-05-10T12:01:14.546Z,29.50
2023-05-10T12:03:44.258Z,29.60
2023-05-10T12:06:13.671Z,28.90
2023-05-10T12:08:47.202Z,29.90
2023-05-10T12:11:23.210Z,29.60
2023-05-10T12:13:55.077Z,30.00
2023-05-10T12:16:26.508Z,28.00
2023-05-10T12:18:57.009Z,27.20
2023-05-10T12:21:26.435Z,28.80
2023-05-10T12:23:57.329Z,28.00
2023-05-10T12:26:28.904Z,27.00
2023-05-10T12:29:13.495Z,25.40
2023-05-10T12:31:52.933Z,26.40
2023-05-10T12:34:34.585Z,26.90
2023-05-10T12:37:04.240Z,28.70
2023-05-10T12:39:43.736Z,27.40
2023-05-10T12:42:14.229Z,27.60
2023-05-10T12:44:43.224Z,27.10
2023-05-10T12:47:12.284Z,25.50
2023-05-10T12:49:41.668Z,24.30
2023-05-10T12:52:11.798Z,24.90
2023-05-10T12:54:41.036Z,23.90
2023-05-10T12:57:10.344Z,25.40
2023-05-10T12:59:41.066Z,26.30
2023-05-10T13:02:11.213Z,26.70
2023-05-10T13:04:44.311Z,24.40
2023-05-10T13:07:15.096Z,23.90
2023-05-10T13:09:45.099Z,23.00
2023-05-10T13:12:14.776Z,21.90
2023-05-10T13:14:45.326Z,24.10
2023-05-10T13:17:14.227Z,25.90
2023-05-10T13:19:43.952Z,26.50
2023-05-10T13:22:13.609Z,24.60
2023-05-10T13:24:42.271Z,23.50
2023-05-10T13:27:11.918Z,25.40
2023-05-10T13:29:44.936Z,26.80
2023-05-10T13:32:16.345Z,28.00
2023-05-10T13:34:45.505Z,28.40
2023-05-10T13:37:14.147Z,27.20
2023-05-10T13:39:43.178Z,26.30
2023-05-10T13:42:12.694Z,24.50
2023-05-10T13:44:41.988Z,23.20
2023-05-10T13:47:11.540Z,22.40
2023-05-10T13:49:42.292Z,24.30
2023-05-10T13:52:11.541Z,25.10
2023-05-10T13:54:41.832Z,25.00
2023-05-10T13:57:47.755Z,25.60
2023-05-10T14:00:18.072Z,26.00
2023-05-10T14:02:47.968Z,23.60
2023-05-10T14:05:22.251Z,22.60
2023-05-10T14:07:55.018Z,22.30
2023-05-10T14:10:25.139Z,24.20
2023-05-10T14:12:54.183Z,22.90
2023-05-10T14:15:24.560Z,22.30
2023-05-10T14:17:54.031Z,22.60
2023-05-10T14:20:27.979Z,23.10
2023-05-10T14:22:57.371Z,22.60
2023-05-10T14:25:27.722Z,21.80
2023-05-10T14:27:57.290Z,22.00
2023-05-10T14:30:27.345Z,22.30
2023-05-10T14:32:56.834Z,21.70
2023-05-10T14:35:27.783Z,21.90
2023-05-10T14:37:57.078Z,22.50
2023-05-10T14:40:26.428Z,23.40
2023-05-10T14:42:55.719Z,23.20
2023-05-10T14:45:25.197Z,22.60
2023-05-10T14:47:54.219Z,21.60
2023-05-10T14:50:35.911Z,22.00
2023-05-10T14:53:56.406Z,21.90
2023-05-10T14:56:27.164Z,22.60
2023-05-10T14:58:56.124Z,24.50
2023-05-10T15:01:25.959Z,24.20
2023-05-10T15:03:56.055Z,23.60
2023-05-10T15:06:33.136Z,22.90
2023-05-10T15:09:02.841Z,22.90
2023-05-10T15:11:33.286Z,23.00
2023-05-10T15:14:02.995Z,23.10
2023-05-10T15:16:35.011Z,22.80
2023-05-10T15:19:04.690Z,22.10
2023-05-10T15:21:40.080Z,21.30
2023-05-10T15:24:09.213Z,21.60
2023-05-10T15:26:39.733Z,21.80
2023-05-10T15:29:08.569Z,22.10
2023-05-10T15:31:37.577Z,21.90
2023-05-10T15:34:06.652Z,21.70
2023-05-10T15:36:35.477Z,21.50
2023-05-10T15:39:05.103Z,21.40
2023-05-10T15:41:33.904Z,21.00
2023-05-10T15:44:04.340Z,20.90
2023-05-10T15:46:33.538Z,20.70
2023-05-10T15:49:02.731Z,20.40
2023-05-10T15:51:31.846Z,20.20
2023-05-10T15:54:07.190Z,20.10
2023-05-10T15:56:39.660Z,20.30
2023-05-10T15:59:11.178Z,20.60
2023-05-10T16:01:40.482Z,20.70
2023-05-10T16:04:09.736Z,20.50
2023-05-10T16:06:40.769Z,20.20
2023-05-10T16:09:12.081Z,20.00
2023-05-10T16:11:44.177Z,20.20
2023-05-10T16:14:16.604Z,20.00
2023-05-10T16:16:52.045Z,19.60
2023-05-10T16:19:32.155Z,19.50
2023-05-10T16:22:01.934Z,19.30
2023-05-10T16:24:31.600Z,19.10
2023-05-10T16:27:04.595Z,19.10
2023-05-10T16:29:37.206Z,19.10
2023-05-10T16:32:08.333Z,19.00
2023-05-10T16:34:39.180Z,18.90
2023-05-10T16:37:08.269Z,19.00
2023-05-10T16:39:37.489Z,18.90
2023-05-10T16:42:09.949Z,19.00
2023-05-10T16:44:42.578Z,19.10
2023-05-10T16:47:11.701Z,19.10
2023-05-10T16:49:40.678Z,19.20
2023-05-10T16:52:09.605Z,19.30
2023-05-10T16:54:38.486Z,19.10
2023-05-10T16:57:08.890Z,19.20
2023-05-10T16:59:37.797Z,19.00
2023-05-10T17:02:08.406Z,18.90
2023-05-10T17:04:37.278Z,18.60
2023-05-10T17:07:06.099Z,18.50
2023-05-10T17:09:35.135Z,18.40
2023-05-10T17:12:05.119Z,18.20
2023-05-10T17:14:34.444Z,18.00
2023-05-10T17:17:03.822Z,18.00
2023-05-10T17:19:39.283Z,17.80
2023-05-10T17:22:08.857Z,17.70
2023-05-10T17:24:37.952Z,17.70
2023-05-10T17:27:08.390Z,17.70
2023-05-10T17:29:37.581Z,17.50
2023-05-10T17:32:09.640Z,17.50
2023-05-10T17:34:42.032Z,17.40
2023-05-10T17:37:13.090Z,17.30
2023-05-10T17:39:43.375Z,17.20
2023-05-10T17:42:13.609Z,17.20
2023-05-10T17:44:42.659Z,17.20
2023-05-10T17:47:12.505Z,17.30
2023-05-10T17:49:42.975Z,17.30
2023-05-10T17:52:12.274Z,17.30
2023-05-10T17:54:41.702Z,17.20
2023-05-10T17:57:11.186Z,17.20
2023-05-10T17:59:41.056Z,17.20
2023-05-10T18:02:10.656Z,17.10
2023-05-10T18:04:45.397Z,17.10
2023-05-10T18:07:14.934Z,17.10
2023-05-10T18:09:45.739Z,16.90
2023-05-10T18:12:15.366Z,16.70
2023-05-10T18:14:44.757Z,16.50
2023-05-10T18:17:14.761Z,16.50
2023-05-10T18:19:45.403Z,16.50
2023-05-10T18:22:15.506Z,16.40
2023-05-10T18:24:45.430Z,16.30
2023-05-10T18:27:15.420Z,16.10
2023-05-10T18:29:44.732Z,16.10
2023-05-10T18:32:14.275Z,16.10
2023-05-10T18:34:44.471Z,15.90
2023-05-10T18:37:16.238Z,15.80
2023-05-10T18:39:45.829Z,15.70
2023-05-10T18:42:16.565Z,15.60
2023-05-10T18:44:45.866Z,15.50
2023-05-10T18:47:15.696Z,15.30
2023-05-10T18:49:46.841Z,15.20
2023-05-10T18:52:17.188Z,15.10
2023-05-10T18:54:47.081Z,15.00
2023-05-10T18:57:16.818Z,15.00
2023-05-10T18:59:46.842Z,14.90
2023-05-10T19:02:16.781Z,14.80
2023-05-10T19:04:47.638Z,14.60
2023-05-10T19:07:17.291Z,14.50
2023-05-10T19:09:46.494Z,14.40
2023-05-10T19:12:15.989Z,14.20
2023-05-10T19:14:45.552Z,14.20
2023-05-10T19:17:16.772Z,14.10
2023-05-10T19:19:47.843Z,14.00
2023-05-10T19:22:17.735Z,14.00
2023-05-10T19:24:51.462Z,13.90
2023-05-10T19:27:21.136Z,14.10
2023-05-10T19:29:50.448Z,13.90
2023-05-10T19:32:20.267Z,13.80
2023-05-10T19:34:52.259Z,13.80
2023-05-10T19:37:21.656Z,13.70
2023-05-10T19:39:51.313Z,13.80
2023-05-10T19:42:21.242Z,13.80
2023-05-10T19:44:51.226Z,13.70
2023-05-10T19:47:21.076Z,13.80
2023-05-10T19:49:52.183Z,13.90
2023-05-10T19:52:21.175Z,13.80
2023-05-10T19:54:50.800Z,13.80
2023-05-10T19:57:20.156Z,13.80
2023-05-10T19:59:49.581Z,13.80
2023-05-10T20:02:19.347Z,13.80
2023-05-10T20:04:50.549Z,13.80
2023-05-10T20:07:21.716Z,13.70
2023-05-10T20:09:51.284Z,13.70
2023-05-10T20:12:20.908Z,13.70
2023-05-10T20:14:50.369Z,13.60
2023-05-10T20:17:19.581Z,13.60
2023-05-10T20:19:49.315Z,13.60
2023-05-10T20:22:20.232Z,13.50
2023-05-10T20:24:49.461Z,13.50
2023-05-10T20:27:18.516Z,13.50
2023-05-10T20:29:48.137Z,13.70
2023-05-10T20:32:17.757Z,14.10
2023-05-10T20:34:47.689Z,14.30
2023-05-10T20:37:18.410Z,14.50
2023-05-10T20:39:50.498Z,14.50
2023-05-10T20:42:21.946Z,14.10
2023-05-10T20:44:51.536Z,13.80
2023-05-10T20:47:21.458Z,13.60
2023-05-10T20:49:51.166Z,13.40
2023-05-10T20:52:21.367Z,13.30
2023-05-10T20:54:53.187Z,13.20
2023-05-10T20:57:22.692Z,13.10
2023-05-10T20:59:52.020Z,12.90
2023-05-10T21:02:21.147Z,12.80
2023-05-10T21:04:51.105Z,12.80
2023-05-10T21:07:20.176Z,12.80
2023-05-10T21:09:49.014Z,12.90
2023-05-10T21:12:19.994Z,12.90
2023-05-10T21:14:51.751Z,12.90
2023-05-10T21:17:21.252Z,12.90
2023-05-10T21:19:51.095Z,12.90
2023-05-10T21:22:21.524Z,13.00
2023-05-10T21:24:51.016Z,13.10
2023-05-10T21:27:22.039Z,13.30
2023-05-10T21:29:51.553Z,13.40
2023-05-10T21:32:20.881Z,13.40
2023-05-10T21:34:50.229Z,13.30
2023-05-10T21:37:19.730Z,13.30
2023-05-10T21:39:49.158Z,13.30
2023-05-10T21:42:18.396Z,13.20
2023-05-10T21:44:49.309Z,13.20
2023-05-10T21:47:18.681Z,13.20
2023-05-10T21:49:48.077Z,13.20
2023-05-10T21:52:17.160Z,13.30
2023-05-10T21:54:46.793Z,13.20
2023-05-10T21:57:16.363Z,13.20
2023-05-10T21:59:45.924Z,13.30
2023-05-10T22:02:16.960Z,13.30
2023-05-10T22:04:46.854Z,13.30
2023-05-10T22:07:17.536Z,13.30
2023-05-10T22:09:47.000Z,13.30
2023-05-10T22:12:16.030Z,13.30
2023-05-10T22:14:45.529Z,13.30
2023-05-10T22:18:11.468Z,13.30
2023-05-10T22:20:42.141Z,13.30
2023-05-10T22:23:11.650Z,13.30
2023-05-10T22:25:40.867Z,13.30
2023-05-10T22:28:10.188Z,13.20
2023-05-10T22:30:39.488Z,13.10
2023-05-10T22:33:09.206Z,13.00
2023-05-10T22:35:38.610Z,12.90
2023-05-10T22:38:10.237Z,12.80
2023-05-10T22:40:40.129Z,12.70
2023-05-10T22:43:09.735Z,12.60
2023-05-10T22:45:39.052Z,12.60
2023-05-10T22:48:10.452Z,12.50
2023-05-10T22:50:40.348Z,12.60
2023-05-10T22:53:11.588Z,12.50
2023-05-10T22:55:40.998Z,12.40
2023-05-10T22:58:10.179Z,12.30
2023-05-10T23:00:39.912Z,12.30
2023-05-10T23:03:09.697Z,12.20
2023-05-10T23:05:38.674Z,12.10
2023-05-10T23:08:08.014Z,12.00
2023-05-10T23:10:39.859Z,11.80
2023-05-10T23:13:09.290Z,11.70
2023-05-10T23:15:38.072Z,11.50
2023-05-10T23:18:09.151Z,11.50
2023-05-10T23:20:37.837Z,11.30
2023-05-10T23:23:07.388Z,11.30
2023-05-10T23:25:39.867Z,11.10
2023-05-10T23:28:09.277Z,11.10
2023-05-10T23:30:38.197Z,11.00
2023-05-10T23:33:08.702Z,11.00
2023-05-10T23:35:38.320Z,10.80
2023-05-10T23:38:08.302Z,10.60
2023-05-10T23:40:39.467Z,10.60
2023-05-10T23:43:09.258Z,10.50
2023-05-10T23:45:38.569Z,10.40
2023-05-10T23:48:07.677Z,10.30
2023-05-10T23:50:37.875Z,10.30
2023-05-10T23:53:07.579Z,10.20
2023-05-10T23:55:37.542Z,10.20
2023-05-10T23:58:09.529Z,10.30
